Main page
METAR-TAF:

METAR-TAF

Airports :

San Angelo Regional Airport

San Angelo, Texas, United States

latitude: 31-21-05N, longitude: 100-29-38W, elevation: 1916 ft

Current weather observation

The report was made 44 minutes ago, at 05:51 UTC
Wind 20 mph from the North
Temperature 39°F
Humidity 41%
Pressure 30.19 in. Hg
Visibility: 10 miles
Clear sky

METAR: KSJT 230551Z AUTO 35017KT 10SM CLR 04/M08 A3019 RMK AO2 PK WND 36026/0540 SLP221 T00441083 10094 20044 402060044 50009

Time: 00:35 (06:35 UTC)

Forecast

The report was made 1 hour and 15 minutes ago, at 05:20 UTC
Forecast valid from 23 at 06 UTC to 24 at 06 UTC
Wind 15 mph from the North/Northwest with gusts up to 23 mph
Visibility: 6 miles
Few clouds at a height of 10000 ft
From 23 at 1100 UTC
Wind 8 mph from the West/Northwest
Visibility: 6 miles
Clear sky

TAF: KSJT 230520Z 2306/2406 34013G20KT P6SM FEW100 FM231100 29007KT P6SM SKC

Weather observations and forecasts of more than 4000 airports (METAR and TAF reports).

The available stations are represented by yellow and red dots on the map.

Hover mouse over dot to see the name of the station.

Then click to see weather observations and forecasts.

To change the map : click on the green buttons with a black cross to zoom in, on the green button with a dash to zoom out, or on the green arrows for adjacent maps.


METAR-TAF: